Delacroix, Louisiana
Current Conditions -  °F | °C
As of 9:48 PM on Saturday 22 Nov 2014 (Local Time) from KNBG Reporting Station
Overcast Overcast  
Wind Chill: 66°   Ceiling: 1100
Heat Index: 66°   Visibility: 10mi
Dew Point: 61°   Wind: 15mph
Humidity: 84%   Direction: 100°E
Pressure: 29.91"   Gusts: 28mph
Location:  29.8369°N, 89.7702°W
Report Text: KNBG 230348Z 10013G24KT 10SM BKN011 OVC017 19/16 A2991 RMK AO2 CIG 009V014 T01890161 $
Loading
Personal Weather Stations






























Interactive Weather Map New forecast layout! Learn more

10-Day Weather Forecast

Advertisements
Track Severe Weather on mobile